createdAt,value
2019-06-01T00:02:21.643Z,64.68
2019-06-01T00:04:52.364Z,64.80
2019-06-01T00:07:22.447Z,64.86
2019-06-01T00:09:52.418Z,64.95
2019-06-01T00:12:22.431Z,65.01
2019-06-01T00:14:52.416Z,65.27
2019-06-01T00:17:22.495Z,65.21
2019-06-01T00:19:52.483Z,65.07
2019-06-01T00:22:22.563Z,65.05
2019-06-01T00:24:52.556Z,65.02
2019-06-01T00:27:22.642Z,65.16
2019-06-01T00:29:53.135Z,65.10
2019-06-01T00:32:23.258Z,65.30
2019-06-01T00:34:53.321Z,65.30
2019-06-01T00:37:23.383Z,65.42
2019-06-01T00:39:53.435Z,65.64
2019-06-01T00:42:23.522Z,65.86
2019-06-01T00:44:53.572Z,65.65
2019-06-01T00:47:23.655Z,65.54
2019-06-01T00:49:53.636Z,65.58
2019-06-01T00:52:23.650Z,65.83
2019-06-01T00:54:53.710Z,65.84
2019-06-01T00:57:23.720Z,65.90
2019-06-01T00:59:55.103Z,65.93
2019-06-01T01:02:25.490Z,65.79
2019-06-01T01:05:13.522Z,65.78
2019-06-01T01:07:44.548Z,65.91
2019-06-01T01:10:15.838Z,66.05
2019-06-01T01:13:05.826Z,66.37
2019-06-01T01:15:36.781Z,66.23
2019-06-01T01:18:08.087Z,66.23
2019-06-01T01:20:38.791Z,66.47
2019-06-01T01:23:09.387Z,66.23
2019-06-01T01:25:39.420Z,66.34
2019-06-01T01:28:09.393Z,66.29
2019-06-01T01:30:39.421Z,66.10
2019-06-01T01:33:09.433Z,65.97
2019-06-01T01:35:39.415Z,65.94
2019-06-01T01:38:09.357Z,65.81
2019-06-01T01:40:39.346Z,65.73
2019-06-01T01:43:09.424Z,65.73
2019-06-01T01:45:39.404Z,65.70
2019-06-01T01:48:09.425Z,65.63
2019-06-01T01:50:39.406Z,65.61
2019-06-01T01:53:09.417Z,65.59
2019-06-01T01:55:39.391Z,65.63
2019-06-01T01:58:09.409Z,65.58
2019-06-01T02:00:42.373Z,65.63
2019-06-01T02:03:12.458Z,65.69
2019-06-01T02:05:42.502Z,66.34
2019-06-01T02:08:12.604Z,66.08
2019-06-01T02:10:43.656Z,65.98
2019-06-01T02:13:13.671Z,66.07
2019-06-01T02:15:43.657Z,66.03
2019-06-01T02:18:13.749Z,66.06
2019-06-01T02:20:43.731Z,66.00
2019-06-01T02:23:13.757Z,65.92
2019-06-01T02:25:43.809Z,65.94
2019-06-01T02:28:13.823Z,65.95
2019-06-01T02:30:43.813Z,65.92
2019-06-01T02:33:13.781Z,65.89
2019-06-01T02:35:43.837Z,65.82
2019-06-01T02:38:13.828Z,66.05
2019-06-01T02:40:43.943Z,66.05
2019-06-01T02:43:14.523Z,65.99
2019-06-01T02:45:44.538Z,65.36
2019-06-01T02:48:14.517Z,65.58
2019-06-01T02:50:44.541Z,65.81
2019-06-01T02:53:14.510Z,65.79
2019-06-01T02:55:44.529Z,65.87
2019-06-01T02:58:14.513Z,65.92
2019-06-01T03:01:02.985Z,65.95
2019-06-01T03:03:33.225Z,66.01
2019-06-01T03:06:05.595Z,66.06
2019-06-01T03:08:37.452Z,66.09
2019-06-01T03:11:09.486Z,66.00
2019-06-01T03:13:42.305Z,65.97
2019-06-01T03:16:15.191Z,66.05
2019-06-01T03:18:46.397Z,65.91
2019-06-01T03:21:19.110Z,65.85
2019-06-01T03:23:50.123Z,65.75
2019-06-01T03:26:23.010Z,65.64
2019-06-01T03:28:54.705Z,65.71
2019-06-01T03:31:24.684Z,65.66
2019-06-01T03:33:54.696Z,65.63
2019-06-01T03:36:24.668Z,65.60
2019-06-01T03:38:54.691Z,65.51
2019-06-01T03:41:24.673Z,65.51
2019-06-01T03:43:55.816Z,65.44
2019-06-01T03:46:25.901Z,65.55
2019-06-01T03:48:55.975Z,65.20
2019-06-01T03:51:25.993Z,65.43
2019-06-01T03:53:55.983Z,65.59
2019-06-01T03:56:25.996Z,65.62
2019-06-01T03:58:55.983Z,65.58
2019-06-01T04:01:26.000Z,65.40
2019-06-01T04:03:56.054Z,65.53
2019-06-01T04:06:26.842Z,65.68
2019-06-01T04:08:56.857Z,65.54
2019-06-01T04:11:26.835Z,65.50
2019-06-01T04:13:56.869Z,65.40
2019-06-01T04:16:26.918Z,65.19
2019-06-01T04:18:56.938Z,65.03
2019-06-01T04:21:26.912Z,64.88
2019-06-01T04:23:56.924Z,64.78
2019-06-01T04:26:27.676Z,64.64
2019-06-01T04:28:57.758Z,64.48
2019-06-01T04:31:27.733Z,64.28
2019-06-01T04:33:57.746Z,64.09
2019-06-01T04:36:27.731Z,63.89
2019-06-01T04:38:57.804Z,63.73
2019-06-01T04:41:27.830Z,63.46
2019-06-01T04:43:58.180Z,63.38
2019-06-01T04:46:28.194Z,63.06
2019-06-01T04:48:58.175Z,62.87
2019-06-01T04:51:28.188Z,62.77
2019-06-01T04:53:58.169Z,62.43
2019-06-01T04:56:28.306Z,62.20
2019-06-01T04:58:58.320Z,61.74
2019-06-01T05:01:28.364Z,61.52
2019-06-01T05:03:58.385Z,61.26
2019-06-01T05:06:29.460Z,61.13
2019-06-01T05:08:59.438Z,60.84
2019-06-01T05:11:29.445Z,60.62
2019-06-01T05:13:59.450Z,60.20
2019-06-01T05:16:29.428Z,59.97
2019-06-01T05:18:59.439Z,59.69
2019-06-01T05:21:29.479Z,59.32
2019-06-01T05:23:59.494Z,58.98
2019-06-01T05:26:29.472Z,58.85
2019-06-01T05:29:00.664Z,58.82
2019-06-01T05:31:30.634Z,58.60
2019-06-01T05:34:00.643Z,58.51
2019-06-01T05:36:30.637Z,57.86
2019-06-01T05:39:00.648Z,57.55
2019-06-01T05:41:30.694Z,57.00
2019-06-01T05:44:00.779Z,56.73
2019-06-01T05:46:30.775Z,56.47
2019-06-01T05:49:00.747Z,56.27
2019-06-01T05:51:30.754Z,56.10
2019-06-01T05:54:00.811Z,56.10
2019-06-01T05:56:30.807Z,55.90
2019-06-01T05:59:00.856Z,55.60
2019-06-01T06:01:30.875Z,55.28
2019-06-01T06:04:00.857Z,55.07
2019-06-01T06:06:30.877Z,54.50
2019-06-01T06:09:00.865Z,53.91
2019-06-01T06:11:32.367Z,53.62
2019-06-01T06:14:02.421Z,53.54
2019-06-01T06:16:32.362Z,53.05
2019-06-01T06:19:02.351Z,53.04
2019-06-01T06:21:32.364Z,52.75
2019-06-01T06:24:02.508Z,52.33
2019-06-01T06:26:32.526Z,51.64
2019-06-01T06:29:02.589Z,50.96
2019-06-01T06:31:32.596Z,50.07
2019-06-01T06:34:02.572Z,49.11
2019-06-01T06:36:32.586Z,48.57
2019-06-01T06:39:04.685Z,47.43
2019-06-01T06:41:34.263Z,47.39
2019-06-01T06:44:04.346Z,47.08
2019-06-01T06:46:34.319Z,47.25
2019-06-01T06:49:04.328Z,47.33
2019-06-01T06:51:34.298Z,47.20
2019-06-01T06:54:04.306Z,47.15
2019-06-01T06:56:34.354Z,46.88
2019-06-01T06:59:04.400Z,46.22
2019-06-01T07:01:34.378Z,46.54
2019-06-01T07:04:12.829Z,46.36
2019-06-01T07:06:36.144Z,45.72
2019-06-01T07:09:07.083Z,44.86
2019-06-01T07:11:37.136Z,45.62
2019-06-01T07:14:07.127Z,44.75
2019-06-01T07:16:37.105Z,44.30
2019-06-01T07:19:07.113Z,44.30
2019-06-01T07:21:37.163Z,42.89
2019-06-01T07:24:07.193Z,42.47
2019-06-01T07:26:37.193Z,41.24
2019-06-01T07:29:07.188Z,41.92
2019-06-01T07:31:37.154Z,42.61
2019-06-01T07:34:07.162Z,42.41
2019-06-01T07:36:37.138Z,42.01
2019-06-01T07:39:08.319Z,40.76
2019-06-01T07:41:38.296Z,39.80
2019-06-01T07:44:08.303Z,40.09
2019-06-01T07:46:39.106Z,39.62
2019-06-01T07:49:09.117Z,39.31
2019-06-01T07:51:39.204Z,40.22
2019-06-01T07:54:09.257Z,39.21
2019-06-01T07:56:39.198Z,38.93
2019-06-01T07:59:09.171Z,39.31
2019-06-01T08:01:39.301Z,39.39
2019-06-01T08:04:09.235Z,39.22
2019-06-01T08:06:45.242Z,39.27
2019-06-01T08:09:10.996Z,39.72
2019-06-01T08:11:41.006Z,39.78
2019-06-01T08:14:11.071Z,39.52
2019-06-01T08:16:41.200Z,38.63
2019-06-01T08:19:11.182Z,38.56
2019-06-01T08:21:41.252Z,38.90
2019-06-01T08:24:11.332Z,39.43
2019-06-01T08:26:41.463Z,39.05
2019-06-01T08:29:11.443Z,39.84
2019-06-01T08:31:41.380Z,37.37
2019-06-01T08:34:11.467Z,37.20
2019-06-01T08:36:41.556Z,38.02
2019-06-01T08:39:11.536Z,36.26
2019-06-01T08:41:41.558Z,36.37
2019-06-01T08:44:11.625Z,36.49
2019-06-01T08:46:41.671Z,36.75
2019-06-01T08:49:11.682Z,35.77
2019-06-01T08:51:41.585Z,36.26
2019-06-01T08:54:11.596Z,35.70
2019-06-01T08:56:41.644Z,36.66
2019-06-01T08:59:11.658Z,36.09
2019-06-01T09:01:41.674Z,35.53
2019-06-01T09:04:11.654Z,36.20
2019-06-01T09:06:41.670Z,35.55
2019-06-01T09:09:12.084Z,35.74
2019-06-01T09:11:42.519Z,35.19
2019-06-01T09:14:12.503Z,35.98
2019-06-01T09:16:42.610Z,36.23
2019-06-01T09:19:12.586Z,35.54
2019-06-01T09:21:42.581Z,35.60
2019-06-01T09:24:12.557Z,35.43
2019-06-01T09:26:42.578Z,36.07
2019-06-01T09:29:12.485Z,36.51
2019-06-01T09:31:42.506Z,36.15
2019-06-01T09:34:12.491Z,35.24
2019-06-01T09:36:42.502Z,35.56
2019-06-01T09:39:12.483Z,35.83
2019-06-01T09:41:42.482Z,35.71
2019-06-01T09:44:12.501Z,34.71
2019-06-01T09:46:42.565Z,34.17
2019-06-01T09:49:12.550Z,34.88
2019-06-01T09:51:42.570Z,35.23
2019-06-01T09:54:12.550Z,34.64
2019-06-01T09:56:42.627Z,34.14
2019-06-01T09:59:12.607Z,33.54
2019-06-01T10:01:42.627Z,33.99
2019-06-01T10:04:12.611Z,32.35
2019-06-01T10:06:42.616Z,32.32
2019-06-01T10:09:12.594Z,32.84
2019-06-01T10:11:42.606Z,33.59
2019-06-01T10:14:12.593Z,33.66
2019-06-01T10:16:43.236Z,33.56
2019-06-01T10:19:13.456Z,34.18
2019-06-01T10:21:43.459Z,33.29
2019-06-01T10:24:13.437Z,33.99
2019-06-01T10:26:43.524Z,33.81
2019-06-01T10:29:13.491Z,33.04
2019-06-01T10:31:43.514Z,32.99
2019-06-01T10:34:13.559Z,33.82
2019-06-01T10:36:43.579Z,33.25
2019-06-01T10:39:13.628Z,32.36
2019-06-01T10:41:43.638Z,33.00
2019-06-01T10:44:13.547Z,32.33
2019-06-01T10:46:43.559Z,32.07
2019-06-01T10:49:13.539Z,31.68
2019-06-01T10:51:43.489Z,31.49
2019-06-01T10:54:13.467Z,31.50
2019-06-01T10:56:44.685Z,31.39
2019-06-01T10:59:14.698Z,32.20
2019-06-01T11:01:44.756Z,30.38
2019-06-01T11:04:14.735Z,30.06
2019-06-01T11:06:48.548Z,30.51
2019-06-01T11:09:16.359Z,31.31
2019-06-01T11:11:46.431Z,30.46
2019-06-01T11:14:16.481Z,30.30
2019-06-01T11:16:51.343Z,31.62
2019-06-01T11:19:18.117Z,31.62
2019-06-01T11:21:48.095Z,31.30
2019-06-01T11:24:18.103Z,31.39
2019-06-01T11:26:48.072Z,32.02
2019-06-01T11:29:18.055Z,31.67
2019-06-01T11:31:48.068Z,31.34
2019-06-01T11:34:18.054Z,30.69
2019-06-01T11:37:04.303Z,30.71
2019-06-01T11:39:19.736Z,29.32
2019-06-01T11:41:49.671Z,28.88
2019-06-01T11:44:19.655Z,29.76
2019-06-01T11:46:49.586Z,29.62
2019-06-01T11:49:21.241Z,30.71
2019-06-01T11:51:51.569Z,30.20
2019-06-01T11:54:21.887Z,30.79
2019-06-01T11:56:51.907Z,30.19
2019-06-01T11:59:21.803Z,29.79
2019-06-01T12:01:51.915Z,30.12
2019-06-01T12:04:21.879Z,30.23
2019-06-01T12:06:52.579Z,30.84
2019-06-01T12:09:22.548Z,30.17
2019-06-01T12:11:52.574Z,29.49
2019-06-01T12:14:22.546Z,30.50
2019-06-01T12:16:52.631Z,30.95
2019-06-01T12:19:22.610Z,30.94
2019-06-01T12:21:52.705Z,30.61
2019-06-01T12:24:25.639Z,30.81
2019-06-01T12:26:54.337Z,31.27
2019-06-01T12:29:24.381Z,31.68
2019-06-01T12:31:54.465Z,32.10
2019-06-01T12:34:24.437Z,32.08
2019-06-01T12:36:54.378Z,32.07
2019-06-01T12:39:24.437Z,31.42
2019-06-01T12:41:54.448Z,32.41
2019-06-01T12:44:24.423Z,32.43
2019-06-01T12:46:54.503Z,30.39
2019-06-01T12:49:24.544Z,30.28
2019-06-01T12:51:54.593Z,30.10
2019-06-01T12:54:24.455Z,29.96
2019-06-01T12:56:54.463Z,29.48
2019-06-01T12:59:24.444Z,29.93
2019-06-01T13:01:56.232Z,29.38
2019-06-01T13:04:26.208Z,29.99
2019-06-01T13:06:56.218Z,29.45
2019-06-01T13:09:26.198Z,29.53
2019-06-01T13:11:56.221Z,29.93
2019-06-01T13:14:26.309Z,30.72
2019-06-01T13:17:06.799Z,30.14
2019-06-01T13:19:27.997Z,30.51
2019-06-01T13:21:57.903Z,31.29
2019-06-01T13:24:27.979Z,31.25
2019-06-01T13:26:57.978Z,30.38
2019-06-01T13:29:27.930Z,30.62
2019-06-01T13:31:57.911Z,31.17
2019-06-01T13:34:27.923Z,30.85
2019-06-01T13:36:57.910Z,31.56
2019-06-01T13:39:27.926Z,31.48
2019-06-01T13:41:57.912Z,30.90
2019-06-01T13:44:27.923Z,31.02
2019-06-01T13:46:57.892Z,31.32
2019-06-01T13:49:27.961Z,31.21
2019-06-01T13:51:57.941Z,30.87
2019-06-01T13:54:27.951Z,30.38
2019-06-01T13:56:58.030Z,30.35
2019-06-01T13:59:28.111Z,30.62
2019-06-01T14:01:58.088Z,30.45
2019-06-01T14:04:28.178Z,30.80
2019-06-01T14:06:58.153Z,31.16
2019-06-01T14:09:28.164Z,30.72
2019-06-01T14:11:58.135Z,30.50
2019-06-01T14:14:28.147Z,30.26
2019-06-01T14:16:58.160Z,30.27
2019-06-01T14:19:28.138Z,30.72
2019-06-01T14:21:58.149Z,30.09
2019-06-01T14:24:28.131Z,30.04
2019-06-01T14:26:58.157Z,29.97
2019-06-01T14:29:28.074Z,30.16
2019-06-01T14:31:58.099Z,29.71
2019-06-01T14:34:28.078Z,30.43
2019-06-01T14:36:58.084Z,30.62
2019-06-01T14:39:28.062Z,30.10
2019-06-01T14:41:58.059Z,29.70
2019-06-01T14:44:28.111Z,29.80
2019-06-01T14:47:03.819Z,29.52
2019-06-01T14:49:29.731Z,30.14
2019-06-01T14:51:59.734Z,30.04
2019-06-01T14:54:29.677Z,30.12
2019-06-01T14:56:59.721Z,29.65
2019-06-01T14:59:29.765Z,29.37
2019-06-01T15:01:59.741Z,29.31
2019-06-01T15:04:29.759Z,29.55
2019-06-01T15:06:59.783Z,29.80
2019-06-01T15:09:29.767Z,29.51
2019-06-01T15:11:59.744Z,29.11
2019-06-01T15:14:29.750Z,29.00
2019-06-01T15:16:59.790Z,29.30
2019-06-01T15:19:30.971Z,29.58
2019-06-01T15:22:00.910Z,29.72
2019-06-01T15:24:30.895Z,30.40
2019-06-01T15:27:00.862Z,31.25
2019-06-01T15:29:30.839Z,31.83
2019-06-01T15:32:02.167Z,32.70
2019-06-01T15:34:32.599Z,32.65
2019-06-01T15:37:02.609Z,31.87
2019-06-01T15:39:32.589Z,30.71
2019-06-01T15:42:02.709Z,31.93
2019-06-01T15:44:32.705Z,30.98
2019-06-01T15:47:02.740Z,31.79
2019-06-01T15:49:32.726Z,31.67
2019-06-01T15:52:03.758Z,31.99
2019-06-01T15:54:33.740Z,31.32
2019-06-01T15:57:03.798Z,30.36
2019-06-01T15:59:33.763Z,30.91
2019-06-01T16:02:03.777Z,30.78
2019-06-01T16:04:33.759Z,31.52
2019-06-01T16:07:03.798Z,32.23
2019-06-01T16:09:42.625Z,32.58
2019-06-01T16:12:05.705Z,32.67
2019-06-01T16:14:35.780Z,32.23
2019-06-01T16:17:05.855Z,32.89
2019-06-01T16:19:35.946Z,33.07
2019-06-01T16:22:05.917Z,33.20
2019-06-01T16:24:35.993Z,33.47
2019-06-01T16:27:06.079Z,33.83
2019-06-01T16:29:36.088Z,33.75
2019-06-01T16:32:06.097Z,33.60
2019-06-01T16:34:36.100Z,33.53
2019-06-01T16:37:06.084Z,33.63
2019-06-01T16:39:36.168Z,34.02
2019-06-01T16:42:06.322Z,34.51
2019-06-01T16:44:36.443Z,34.25
2019-06-01T16:47:06.427Z,33.92
2019-06-01T16:49:36.437Z,33.88
2019-06-01T16:52:07.179Z,33.84
2019-06-01T16:54:37.440Z,33.05
2019-06-01T16:57:07.490Z,33.46
2019-06-01T16:59:38.580Z,34.04
2019-06-01T17:02:09.252Z,33.70
2019-06-01T17:04:39.263Z,33.64
2019-06-01T17:07:09.280Z,34.09
2019-06-01T17:09:39.364Z,33.70
2019-06-01T17:12:09.390Z,33.84
2019-06-01T17:14:39.511Z,33.41
2019-06-01T17:17:09.595Z,33.55
2019-06-01T17:19:39.611Z,33.98
2019-06-01T17:22:09.655Z,33.84
2019-06-01T17:24:39.741Z,33.70
2019-06-01T17:27:09.713Z,34.16
2019-06-01T17:29:39.731Z,33.47
2019-06-01T17:32:23.027Z,33.64
2019-06-01T17:34:41.492Z,33.75
2019-06-01T17:37:11.474Z,33.95
2019-06-01T17:39:41.785Z,32.96
2019-06-01T17:42:12.724Z,32.33
2019-06-01T17:44:43.222Z,31.83
2019-06-01T17:47:13.189Z,31.90
2019-06-01T17:49:43.285Z,31.76
2019-06-01T17:52:13.249Z,31.75
2019-06-01T17:54:44.428Z,31.52
2019-06-01T17:57:14.436Z,32.13
2019-06-01T17:59:44.648Z,32.12
2019-06-01T18:02:15.041Z,32.40
2019-06-01T18:04:45.079Z,32.73
2019-06-01T18:07:15.164Z,32.92
2019-06-01T18:09:45.185Z,33.73
2019-06-01T18:12:15.308Z,34.17
2019-06-01T18:14:45.320Z,33.61
2019-06-01T18:17:15.366Z,33.73
2019-06-01T18:19:45.458Z,33.87
2019-06-01T18:22:15.434Z,33.83
2019-06-01T18:24:45.523Z,33.93
2019-06-01T18:27:15.577Z,34.13
2019-06-01T18:29:48.672Z,34.09
2019-06-01T18:32:17.398Z,34.27
2019-06-01T18:34:47.479Z,34.19
2019-06-01T18:37:17.518Z,34.38
2019-06-01T18:39:48.268Z,34.62
2019-06-01T18:42:21.336Z,35.37
2019-06-01T18:44:51.349Z,35.55
2019-06-01T18:47:31.811Z,35.92
2019-06-01T18:49:53.304Z,36.12
2019-06-01T18:52:23.289Z,36.50
2019-06-01T18:54:53.372Z,36.76
2019-06-01T18:57:23.455Z,37.01
2019-06-01T18:59:53.544Z,37.46
2019-06-01T19:02:23.532Z,37.66
2019-06-01T19:04:53.549Z,38.08
2019-06-01T19:07:23.534Z,38.63
2019-06-01T19:09:53.620Z,39.07
2019-06-01T19:12:24.528Z,39.16
2019-06-01T19:14:54.993Z,40.14
2019-06-01T19:17:24.998Z,41.11
2019-06-01T19:19:54.985Z,41.95
2019-06-01T19:22:25.062Z,42.39
2019-06-01T19:24:55.052Z,43.40
2019-06-01T19:27:25.054Z,43.83
2019-06-01T19:29:55.031Z,44.05
2019-06-01T19:32:25.047Z,44.14
2019-06-01T19:34:55.436Z,44.07
2019-06-01T19:37:26.917Z,44.38
2019-06-01T19:39:57.107Z,44.66
2019-06-01T19:42:27.101Z,45.12
2019-06-01T19:44:57.111Z,45.26
2019-06-01T19:47:27.092Z,45.57
2019-06-01T19:49:57.105Z,46.08
2019-06-01T19:52:27.155Z,46.56
2019-06-01T19:54:57.175Z,47.03
2019-06-01T19:57:27.082Z,47.36
2019-06-01T19:59:57.035Z,47.72
2019-06-01T20:02:33.787Z,48.00
2019-06-01T20:04:58.798Z,48.24
2019-06-01T20:07:28.850Z,48.57
2019-06-01T20:09:58.859Z,49.01
2019-06-01T20:12:28.844Z,49.23
2019-06-01T20:14:58.826Z,49.24
2019-06-01T20:17:28.940Z,49.35
2019-06-01T20:19:58.910Z,49.60
2019-06-01T20:22:28.907Z,49.77
2019-06-01T20:24:58.827Z,49.94
2019-06-01T20:27:28.909Z,50.20
2019-06-01T20:29:58.952Z,50.81
2019-06-01T20:32:29.044Z,51.01
2019-06-01T20:34:59.085Z,51.49
2019-06-01T20:37:29.097Z,51.81
2019-06-01T20:39:59.073Z,51.93
2019-06-01T20:42:32.433Z,52.19
2019-06-01T20:45:00.847Z,52.52
2019-06-01T20:47:32.751Z,52.83
2019-06-01T20:50:03.741Z,53.03
2019-06-01T20:52:33.828Z,53.26
2019-06-01T20:55:06.245Z,53.47
2019-06-01T20:57:36.301Z,53.84
2019-06-01T21:00:10.804Z,54.14
2019-06-01T21:02:41.950Z,54.48
2019-06-01T21:05:13.747Z,54.96
2019-06-01T21:07:43.971Z,55.21
2019-06-01T21:10:16.183Z,55.45
2019-06-01T21:12:46.387Z,55.69
2019-06-01T21:15:17.386Z,56.39
2019-06-01T21:17:50.150Z,56.14
2019-06-01T21:20:26.872Z,56.22
2019-06-01T21:22:52.566Z,56.42
2019-06-01T21:25:22.915Z,56.64
2019-06-01T21:27:53.223Z,56.90
2019-06-01T21:30:24.647Z,57.19
2019-06-01T21:32:54.923Z,57.47
2019-06-01T21:35:25.563Z,57.70
2019-06-01T21:37:55.715Z,57.98
2019-06-01T21:40:25.824Z,58.25
2019-06-01T21:43:03.089Z,58.43
2019-06-01T21:45:27.661Z,58.47
2019-06-01T21:47:57.648Z,58.61
2019-06-01T21:50:27.664Z,58.76
2019-06-01T21:52:57.660Z,58.75
2019-06-01T21:55:27.736Z,58.86
2019-06-01T21:57:57.718Z,58.91
2019-06-01T22:00:33.830Z,58.98
2019-06-01T22:03:07.405Z,59.15
2019-06-01T22:05:37.702Z,59.28
2019-06-01T22:08:07.681Z,59.40
2019-06-01T22:10:37.696Z,59.53
2019-06-01T22:13:18.211Z,59.68
2019-06-01T22:15:39.384Z,59.71
2019-06-01T22:18:09.365Z,59.79
2019-06-01T22:20:39.376Z,59.98
2019-06-01T22:23:11.828Z,60.09
2019-06-01T22:25:41.160Z,60.23
2019-06-01T22:28:11.243Z,60.37
2019-06-01T22:30:42.213Z,60.50
2019-06-01T22:33:12.230Z,60.72
2019-06-01T22:35:42.245Z,60.70
2019-06-01T22:38:12.224Z,60.71
2019-06-01T22:40:42.257Z,60.81
2019-06-01T22:43:12.250Z,60.93
2019-06-01T22:45:42.271Z,61.13
2019-06-01T22:48:12.252Z,61.30
2019-06-01T22:50:42.366Z,61.59
2019-06-01T22:53:12.344Z,61.53
2019-06-01T22:55:42.355Z,61.56
2019-06-01T22:58:12.406Z,61.66
2019-06-01T23:00:42.430Z,61.63
2019-06-01T23:03:12.413Z,61.84
2019-06-01T23:05:42.492Z,62.00
2019-06-01T23:08:12.577Z,62.12
2019-06-01T23:10:42.554Z,62.30
2019-06-01T23:13:12.642Z,62.48
2019-06-01T23:15:42.652Z,62.54
2019-06-01T23:18:12.642Z,62.56
2019-06-01T23:20:42.695Z,62.57
2019-06-01T23:23:13.991Z,62.64
2019-06-01T23:25:44.038Z,63.22
2019-06-01T23:28:14.045Z,63.16
2019-06-01T23:30:45.394Z,62.92
2019-06-01T23:33:15.406Z,62.96
2019-06-01T23:35:45.383Z,62.98
2019-06-01T23:38:15.395Z,63.03
2019-06-01T23:40:45.379Z,63.17
2019-06-01T23:43:15.384Z,63.38
2019-06-01T23:45:45.367Z,63.32
2019-06-01T23:48:15.404Z,63.28
2019-06-01T23:50:45.426Z,63.44
2019-06-01T23:53:15.452Z,63.68
2019-06-01T23:55:45.430Z,63.63
2019-06-01T23:58:15.442Z,63.93
